Time;durP1;ratioP1;P1;durP2;ratioP2;P2;SDS_P1;SDS_P2;PMS_P1;PMS_P2;Temp;Humidity;BMP_temperature;BMP_pressure;BME280_temperature;BME280_humidity;BME280_pressure;Samples;Min_cycle;Max_cycle;Signal;HPM_P1;HPM_P2
2023/01/06 00:01:03;;;;;;;24.10;12.20;;;10.00;99.90;;;;;;5085053;28;20048;-77
2023/01/06 00:03:28;;;;;;;19.52;11.60;;;10.00;99.90;;;;;;5092820;28;20047;-75
2023/01/06 00:05:59;;;;;;;22.27;11.43;;;10.00;99.90;;;;;;5081598;28;20115;-76
2023/01/06 00:08:25;;;;;;;22.80;11.90;;;10.00;99.90;;;;;;5082616;28;20430;-78
2023/01/06 00:10:51;;;;;;;21.20;11.18;;;10.00;99.90;;;;;;5082967;28;20071;-77
2023/01/06 00:13:16;;;;;;;24.60;12.23;;;10.00;99.90;;;;;;5082869;28;20071;-78
2023/01/06 00:15:42;;;;;;;23.90;11.85;;;10.10;99.90;;;;;;5074973;28;20058;-77
2023/01/06 00:18:08;;;;;;;21.63;12.55;;;10.10;99.90;;;;;;5078690;28;20052;-78
2023/01/06 00:20:33;;;;;;;20.90;11.68;;;10.10;99.90;;;;;;5092985;28;20460;-76
2023/01/06 00:22:59;;;;;;;22.13;10.75;;;10.10;99.90;;;;;;5080651;28;20439;-78
2023/01/06 00:25:25;;;;;;;19.40;10.80;;;10.10;99.90;;;;;;5067974;28;20071;-76
2023/01/06 00:27:51;;;;;;;20.92;12.40;;;10.10;99.90;;;;;;5086348;28;20047;-78
2023/01/06 00:30:16;;;;;;;19.75;10.55;;;10.20;99.90;;;;;;5079893;28;20075;-80
2023/01/06 00:32:42;;;;;;;18.38;11.15;;;10.20;99.90;;;;;;5085323;28;20194;-75
2023/01/06 00:35:08;;;;;;;20.27;11.25;;;10.20;99.90;;;;;;5095688;28;20044;-77
2023/01/06 00:37:34;;;;;;;20.45;10.95;;;10.20;99.90;;;;;;5088586;28;20087;-76
2023/01/06 00:39:59;;;;;;;22.15;11.23;;;10.20;99.90;;;;;;5090860;28;20062;-77
2023/01/06 00:42:25;;;;;;;23.33;12.20;;;10.20;99.90;;;;;;5087646;28;20039;-76
2023/01/06 00:44:51;;;;;;;19.60;11.52;;;10.20;99.90;;;;;;5070501;28;20040;-87
2023/01/06 00:47:18;;;;;;;20.08;10.38;;;10.20;99.90;;;;;;5084077;28;20048;-78
2023/01/06 00:49:44;;;;;;;15.82;9.50;;;10.20;99.90;;;;;;5060833;28;20049;-76
2023/01/06 00:52:10;;;;;;;21.23;11.02;;;10.20;99.90;;;;;;5086344;28;20110;-76
2023/01/06 00:54:36;;;;;;;18.48;10.57;;;10.20;99.90;;;;;;5082472;28;20036;-76
2023/01/06 00:57:04;;;;;;;18.55;9.55;;;10.20;99.90;;;;;;5088954;28;20104;-77
2023/01/06 00:59:30;;;;;;;16.45;9.65;;;10.30;99.90;;;;;;5065202;28;20040;-78
2023/01/06 01:01:56;;;;;;;16.27;9.63;;;10.20;99.90;;;;;;5088677;28;20588;-81
2023/01/06 01:04:23;;;;;;;12.98;7.40;;;10.20;99.90;;;;;;5094030;28;20064;-76
2023/01/06 01:06:50;;;;;;;13.55;8.57;;;10.20;99.90;;;;;;5079686;28;20052;-79
2023/01/06 01:09:22;;;;;;;10.23;7.43;;;10.20;99.90;;;;;;5080602;28;20044;-83
2023/01/06 01:14:33;;;;;;;12.10;7.55;;;10.30;99.90;;;;;;5083503;28;20056;-76
2023/01/06 01:16:58;;;;;;;14.55;7.50;;;10.20;99.90;;;;;;5089902;28;20060;-77
2023/01/06 01:19:25;;;;;;;12.43;7.90;;;10.20;99.90;;;;;;5078169;28;20049;-77
2023/01/06 01:21:51;;;;;;;14.15;7.43;;;10.20;99.90;;;;;;5080458;28;20044;-78
2023/01/06 01:24:17;;;;;;;12.85;6.90;;;10.10;99.90;;;;;;5079311;28;20055;-77
2023/01/06 01:26:43;;;;;;;12.15;6.80;;;10.10;99.90;;;;;;5076889;28;20063;-79
2023/01/06 01:29:13;;;;;;;12.15;7.18;;;10.10;99.90;;;;;;5076649;28;20043;-78
2023/01/06 01:31:40;;;;;;;12.63;6.80;;;10.10;99.90;;;;;;5079975;28;20039;-80
2023/01/06 01:34:06;;;;;;;8.45;6.15;;;10.10;99.90;;;;;;5086861;28;20048;-79
2023/01/06 01:36:32;;;;;;;12.77;6.00;;;10.10;99.90;;;;;;5087568;28;20032;-80
2023/01/06 01:38:59;;;;;;;10.77;5.70;;;10.10;99.90;;;;;;5075935;28;20040;-77
2023/01/06 01:41:26;;;;;;;12.32;6.45;;;10.20;99.90;;;;;;5078266;28;20051;-79
2023/01/06 01:43:58;;;;;;;9.52;5.43;;;10.20;99.90;;;;;;5060164;28;20041;-81
2023/01/06 01:46:38;;;;;;;11.48;6.55;;;10.20;99.90;;;;;;5091093;28;20048;-81
2023/01/06 01:49:10;;;;;;;10.55;5.43;;;10.20;99.90;;;;;;5081228;28;20101;-76
2023/01/06 01:51:43;;;;;;;7.68;6.18;;;10.10;99.90;;;;;;5078323;28;20040;-78
2023/01/06 01:54:15;;;;;;;9.40;6.00;;;10.10;99.90;;;;;;5080522;28;20052;-76
2023/01/06 01:56:45;;;;;;;9.23;5.80;;;10.10;99.90;;;;;;5087457;28;20036;-81
2023/01/06 01:59:18;;;;;;;7.00;4.97;;;10.10;99.90;;;;;;5074285;28;20048;-76
2023/01/06 02:01:45;;;;;;;8.50;6.07;;;10.10;99.90;;;;;;5064327;28;20040;-78
2023/01/06 02:04:14;;;;;;;9.95;6.43;;;10.10;99.90;;;;;;5079209;28;20115;-81
2023/01/06 02:06:40;;;;;;;10.35;5.90;;;10.10;99.90;;;;;;5069578;28;20465;-78
2023/01/06 02:09:13;;;;;;;8.40;5.57;;;10.10;99.90;;;;;;5089806;28;20097;-76
2023/01/06 02:11:40;;;;;;;7.88;5.18;;;10.10;99.90;;;;;;5079296;28;20049;-80
2023/01/06 02:14:09;;;;;;;9.40;4.90;;;10.10;99.90;;;;;;5033013;28;1141063;-79
2023/01/06 02:17:03;;;;;;;10.35;5.20;;;10.10;99.90;;;;;;5079292;28;20040;-79
2023/01/06 02:19:47;;;;;;;7.43;4.95;;;10.10;99.90;;;;;;5078098;28;20056;-78
2023/01/06 02:22:30;;;;;;;8.98;4.93;;;10.10;99.90;;;;;;5076510;28;20071;-76
2023/01/06 02:25:14;;;;;;;6.03;4.80;;;10.10;99.90;;;;;;5095005;28;20040;-77
2023/01/06 02:27:47;;;;;;;7.25;4.30;;;10.10;99.90;;;;;;5077815;28;20052;-75
2023/01/06 02:31:00;;;;;;;7.55;4.30;;;10.10;99.90;;;;;;5088675;28;20060;-78
2023/01/06 02:33:40;;;;;;;6.80;4.35;;;10.20;99.90;;;;;;5043123;28;20061;-79
2023/01/06 02:36:11;;;;;;;7.25;4.32;;;10.20;99.90;;;;;;5058457;28;20154;-76
2023/01/06 02:38:55;;;;;;;7.75;4.00;;;10.20;99.90;;;;;;5079487;28;20080;-77
2023/01/06 02:41:33;;;;;;;5.93;4.63;;;10.20;99.90;;;;;;5085163;28;20049;-77
2023/01/06 02:44:09;;;;;;;4.97;3.90;;;10.20;99.90;;;;;;5078193;28;20273;-79
2023/01/06 02:46:57;;;;;;;5.20;3.80;;;10.20;99.90;;;;;;5061487;28;20086;-81
2023/01/06 02:49:29;;;;;;;6.90;4.22;;;10.20;99.90;;;;;;5068201;28;20052;-78
2023/01/06 02:52:02;;;;;;;6.68;3.85;;;10.20;99.90;;;;;;5074661;28;20087;-78
2023/01/06 02:54:57;;;;;;;8.27;3.75;;;10.20;99.90;;;;;;5081997;28;20032;-76
2023/01/06 02:57:36;;;;;;;5.68;3.78;;;10.20;99.90;;;;;;5058286;28;20059;-77
2023/01/06 03:00:18;;;;;;;5.30;3.65;;;10.10;99.90;;;;;;5074605;28;20052;-75
2023/01/06 03:02:49;;;;;;;5.20;4.20;;;10.20;99.90;;;;;;5092915;28;20130;-79
2023/01/06 03:05:16;;;;;;;6.35;4.10;;;10.20;99.90;;;;;;5096575;28;20042;-76
2023/01/06 03:07:44;;;;;;;7.65;4.32;;;10.10;99.90;;;;;;5082917;28;20070;-77
2023/01/06 03:10:15;;;;;;;6.15;4.13;;;10.10;99.90;;;;;;5098542;28;20048;-76
2023/01/06 03:12:47;;;;;;;6.28;4.22;;;10.20;99.90;;;;;;5095020;28;20044;-80
2023/01/06 03:15:13;;;;;;;6.97;4.45;;;10.60;99.90;;;;;;5064292;28;20197;-76
2023/01/06 03:17:39;;;;;;;4.88;4.22;;;10.10;99.90;;;;;;5090078;28;20060;-75
2023/01/06 03:20:05;;;;;;;7.00;4.55;;;10.20;99.90;;;;;;5091873;28;20044;-76
2023/01/06 03:22:32;;;;;;;6.95;4.38;;;10.20;99.90;;;;;;5080814;28;20469;-79
2023/01/06 03:24:59;;;;;;;6.40;4.97;;;10.20;99.90;;;;;;5085480;28;20432;-79
2023/01/06 03:27:26;;;;;;;6.40;5.25;;;10.10;99.90;;;;;;5098952;28;20063;-76
2023/01/06 03:29:53;;;;;;;7.95;4.63;;;10.10;99.90;;;;;;5104541;28;20489;-76
2023/01/06 03:32:53;;;;;;;8.65;5.82;;;10.10;99.90;;;;;;5098407;28;20564;-76
2023/01/06 03:35:39;;;;;;;8.50;6.60;;;10.10;99.90;;;;;;5074181;28;20067;-75
2023/01/06 03:38:17;;;;;;;10.63;6.83;;;10.10;99.90;;;;;;5068019;28;20056;-76
2023/01/06 03:40:45;;;;;;;9.38;7.20;;;10.00;99.90;;;;;;5102629;28;20349;-75
2023/01/06 03:43:26;;;;;;;12.25;8.18;;;10.00;99.90;;;;;;5089489;28;20052;-76
2023/01/06 03:46:07;;;;;;;11.48;8.25;;;10.00;99.90;;;;;;5066813;28;20786;-77
2023/01/06 03:48:48;;;;;;;10.00;7.85;;;10.00;99.90;;;;;;5099502;28;20175;-82
2023/01/06 03:51:32;;;;;;;11.88;7.90;;;10.00;99.90;;;;;;5087949;28;20068;-78
2023/01/06 03:54:08;;;;;;;9.60;8.43;;;10.00;99.90;;;;;;5080186;28;20056;-77
2023/01/06 03:56:49;;;;;;;11.23;8.70;;;10.10;99.90;;;;;;5099726;28;20067;-76
2023/01/06 03:59:20;;;;;;;10.00;8.10;;;10.00;99.90;;;;;;5095699;28;20041;-77
2023/01/06 04:01:47;;;;;;;10.30;8.18;;;10.10;99.90;;;;;;5088152;28;20487;-86
2023/01/06 04:04:13;;;;;;;9.07;7.32;;;10.10;99.90;;;;;;5099986;28;20951;-76
2023/01/06 04:06:38;;;;;;;11.75;7.70;;;10.10;99.90;;;;;;5100460;28;20036;-75
2023/01/06 04:09:04;;;;;;;9.10;7.72;;;10.10;99.90;;;;;;5098907;28;20048;-86
2023/01/06 04:14:14;;;;;;;8.68;7.07;;;10.10;99.90;;;;;;5080109;28;20052;-75
2023/01/06 04:16:40;;;;;;;12.00;7.35;;;10.10;99.90;;;;;;5077813;28;20060;-75
2023/01/06 04:19:05;;;;;;;7.95;6.18;;;10.10;99.90;;;;;;5089193;28;20059;-78
2023/01/06 04:21:31;;;;;;;9.30;6.70;;;10.10;99.90;;;;;;5082241;28;20870;-79
2023/01/06 04:23:57;;;;;;;10.80;6.47;;;10.10;99.90;;;;;;5080143;28;20101;-77
2023/01/06 04:26:22;;;;;;;8.35;5.78;;;10.10;99.90;;;;;;5067017;28;20036;-77
2023/01/06 04:28:48;;;;;;;9.70;5.82;;;10.10;99.90;;;;;;5071233;28;20118;-83
2023/01/06 04:31:14;;;;;;;9.00;5.60;;;10.10;99.90;;;;;;5031885;28;20048;-79
2023/01/06 04:33:40;;;;;;;8.00;5.60;;;10.10;99.90;;;;;;5079937;28;20081;-76
2023/01/06 04:36:06;;;;;;;6.97;5.38;;;10.10;99.90;;;;;;5097326;28;20127;-77
2023/01/06 04:38:31;;;;;;;8.23;6.13;;;10.10;99.90;;;;;;5083270;28;20041;-79
2023/01/06 04:40:57;;;;;;;6.55;5.40;;;10.10;99.90;;;;;;5060209;28;20079;-77
2023/01/06 04:43:23;;;;;;;6.65;5.30;;;10.10;99.90;;;;;;5040044;28;20400;-80
2023/01/06 04:45:49;;;;;;;6.13;5.15;;;10.10;99.90;;;;;;5062613;28;20147;-77
2023/01/06 04:48:14;;;;;;;6.38;4.97;;;10.10;99.90;;;;;;5094619;28;20044;-80
2023/01/06 04:50:40;;;;;;;7.82;5.65;;;10.10;99.90;;;;;;5098363;28;20109;-77
2023/01/06 04:53:08;;;;;;;7.35;5.07;;;10.10;99.90;;;;;;5063482;28;20488;-78
2023/01/06 04:55:40;;;;;;;7.07;5.15;;;10.10;99.90;;;;;;5069926;28;20071;-75
2023/01/06 04:58:06;;;;;;;6.45;4.68;;;10.10;99.90;;;;;;5090224;28;20046;-76
2023/01/06 05:00:32;;;;;;;5.63;4.07;;;10.10;99.90;;;;;;5099206;28;20407;-77
2023/01/06 05:02:58;;;;;;;4.72;3.75;;;10.10;99.90;;;;;;5075805;28;20040;-79
2023/01/06 05:05:24;;;;;;;4.70;3.83;;;10.10;99.90;;;;;;5099330;28;20058;-79
2023/01/06 05:07:53;;;;;;;5.45;4.22;;;10.10;99.90;;;;;;5099185;28;20044;-77
2023/01/06 05:10:19;;;;;;;5.50;4.07;;;10.10;99.90;;;;;;5068547;28;20048;-79
2023/01/06 05:12:44;;;;;;;5.15;3.85;;;10.10;99.90;;;;;;5084177;28;20043;-77
2023/01/06 05:15:11;;;;;;;5.10;3.67;;;10.10;99.90;;;;;;5060935;28;20112;-75
2023/01/06 05:17:36;;;;;;;4.55;3.45;;;10.10;99.90;;;;;;5077572;28;20525;-79
2023/01/06 05:20:03;;;;;;;8.27;5.03;;;10.10;99.90;;;;;;5065425;28;20116;-78
2023/01/06 05:22:29;;;;;;;5.43;3.47;;;10.10;99.90;;;;;;5078238;28;20048;-77
2023/01/06 05:24:55;;;;;;;4.43;3.20;;;10.10;99.90;;;;;;5078271;28;20091;-80
2023/01/06 05:27:20;;;;;;;4.20;3.50;;;10.10;99.90;;;;;;5082409;28;20051;-81
2023/01/06 05:29:46;;;;;;;4.60;3.72;;;10.10;99.90;;;;;;5095404;28;20040;-76
2023/01/06 05:32:12;;;;;;;4.88;3.08;;;10.10;99.90;;;;;;5090433;28;20040;-75
2023/01/06 05:34:38;;;;;;;4.50;3.35;;;10.00;99.90;;;;;;5060025;28;20121;-79
2023/01/06 05:37:04;;;;;;;4.40;3.15;;;10.00;99.90;;;;;;5087288;28;20047;-77
2023/01/06 05:39:29;;;;;;;4.57;3.22;;;10.00;99.90;;;;;;5098244;28;20101;-77
2023/01/06 05:41:55;;;;;;;4.53;3.20;;;10.00;99.90;;;;;;5074383;28;20059;-77
2023/01/06 05:44:20;;;;;;;4.43;3.30;;;10.10;99.90;;;;;;5085076;28;20036;-79
2023/01/06 05:46:46;;;;;;;5.13;3.20;;;10.10;99.90;;;;;;5078926;28;20069;-77
2023/01/06 05:49:12;;;;;;;4.57;3.40;;;10.10;99.90;;;;;;5090055;28;20055;-76
2023/01/06 05:51:38;;;;;;;6.60;3.00;;;10.10;99.90;;;;;;5075812;28;20044;-76
2023/01/06 05:54:07;;;;;;;5.68;2.85;;;10.10;99.90;;;;;;5061873;28;20057;-77
2023/01/06 05:56:33;;;;;;;4.20;3.10;;;10.10;99.90;;;;;;5091912;28;20127;-78
2023/01/06 05:58:59;;;;;;;3.15;2.45;;;10.20;99.90;;;;;;5097047;28;20098;-76
2023/01/06 06:01:26;;;;;;;3.97;2.60;;;10.10;99.90;;;;;;5085917;28;20542;-74
2023/01/06 06:03:53;;;;;;;4.97;2.70;;;10.10;99.90;;;;;;5086130;28;20051;-77
2023/01/06 06:06:21;;;;;;;4.57;2.90;;;10.20;99.90;;;;;;5082481;28;20082;-78
2023/01/06 06:08:47;;;;;;;5.13;2.63;;;10.20;99.90;;;;;;5089292;28;20041;-73
2023/01/06 06:11:15;;;;;;;3.90;2.88;;;10.20;99.90;;;;;;5086355;28;20075;-78
2023/01/06 06:13:50;;;;;;;4.43;2.50;;;10.20;99.90;;;;;;5082438;28;20052;-78
2023/01/06 06:16:17;;;;;;;4.35;2.67;;;10.20;99.90;;;;;;5079739;28;20055;-85
2023/01/06 06:18:47;;;;;;;3.30;2.22;;;10.20;99.90;;;;;;5081052;28;20056;-77
2023/01/06 06:21:15;;;;;;;5.45;2.75;;;10.20;99.90;;;;;;5095405;28;20047;-82
2023/01/06 06:23:41;;;;;;;3.45;2.40;;;10.10;99.90;;;;;;5095534;28;20621;-82
2023/01/06 06:26:08;;;;;;;3.42;2.47;;;10.10;99.90;;;;;;5075937;28;20063;-81
2023/01/06 06:28:35;;;;;;;2.78;2.10;;;10.10;99.90;;;;;;5078039;28;20047;-77
2023/01/06 06:31:05;;;;;;;4.75;2.13;;;10.10;99.90;;;;;;5098838;28;20052;-79
2023/01/06 06:33:32;;;;;;;3.47;2.40;;;10.00;99.90;;;;;;5090241;28;20052;-78
2023/01/06 06:35:58;;;;;;;4.03;2.20;;;10.00;99.90;;;;;;5078913;28;20052;-75
2023/01/06 06:38:24;;;;;;;4.93;2.03;;;10.00;99.90;;;;;;5095510;28;20115;-76
2023/01/06 06:40:50;;;;;;;3.17;2.13;;;10.00;99.90;;;;;;5097486;28;20083;-75
2023/01/06 06:43:15;;;;;;;2.90;2.22;;;10.00;99.90;;;;;;5062889;28;20039;-84
2023/01/06 06:45:44;;;;;;;2.67;1.75;;;10.00;99.90;;;;;;5084607;28;20051;-79
2023/01/06 06:48:09;;;;;;;2.97;2.20;;;10.00;99.90;;;;;;5076951;28;20075;-82
2023/01/06 06:50:35;;;;;;;3.75;2.60;;;9.90;99.90;;;;;;5082526;28;20040;-80
2023/01/06 06:53:01;;;;;;;3.53;2.40;;;9.90;99.90;;;;;;5077408;28;20049;-80
2023/01/06 06:55:27;;;;;;;5.00;2.33;;;9.80;99.90;;;;;;5075188;28;20047;-79
2023/01/06 06:57:53;;;;;;;3.97;2.65;;;9.90;99.90;;;;;;5060989;28;20055;-79
2023/01/06 07:00:18;;;;;;;2.95;2.15;;;9.80;99.90;;;;;;5076406;28;20048;-83
2023/01/06 07:02:48;;;;;;;4.90;2.55;;;9.70;99.90;;;;;;5080919;28;20069;-81
2023/01/06 07:05:15;;;;;;;4.85;2.50;;;9.70;99.90;;;;;;5067741;28;20059;-84
2023/01/06 07:07:41;;;;;;;4.32;2.13;;;9.60;99.90;;;;;;5096060;28;20044;-78
2023/01/06 07:10:07;;;;;;;4.35;2.80;;;9.60;99.90;;;;;;5097841;28;20095;-81
2023/01/06 07:12:33;;;;;;;4.07;2.30;;;9.50;99.90;;;;;;5078998;28;20056;-80
2023/01/06 07:14:58;;;;;;;5.10;2.63;;;9.50;99.90;;;;;;5048563;28;20120;-76
2023/01/06 07:17:28;;;;;;;5.05;3.17;;;9.40;99.90;;;;;;5089903;28;20044;-76
2023/01/06 07:19:54;;;;;;;5.28;3.28;;;9.40;99.90;;;;;;5097771;28;20072;-82
2023/01/06 07:22:20;;;;;;;5.28;3.53;;;9.40;99.90;;;;;;5096355;28;20056;-82
2023/01/06 07:24:45;;;;;;;3.95;2.80;;;9.40;99.90;;;;;;5095857;28;20051;-79
2023/01/06 07:27:11;;;;;;;5.40;3.15;;;9.40;99.90;;;;;;5097438;28;20064;-77
2023/01/06 07:29:37;;;;;;;5.05;3.47;;;9.40;99.90;;;;;;5078207;28;20100;-78
2023/01/06 07:32:03;;;;;;;5.68;3.38;;;9.40;99.90;;;;;;5076284;28;20049;-77
2023/01/06 07:34:28;;;;;;;5.05;3.75;;;9.40;99.90;;;;;;5083613;28;20055;-82
2023/01/06 07:36:54;;;;;;;4.35;3.10;;;9.40;99.90;;;;;;5059987;28;20076;-86
2023/01/06 07:39:20;;;;;;;4.65;3.40;;;9.40;99.90;;;;;;5076616;28;20061;-77
2023/01/06 07:41:46;;;;;;;4.43;3.08;;;9.40;99.90;;;;;;5091628;28;20384;-85
2023/01/06 07:44:14;;;;;;;4.10;3.13;;;9.40;99.90;;;;;;5078449;28;20047;-88
2023/01/06 07:46:40;;;;;;;8.70;3.53;;;9.40;99.90;;;;;;5075034;28;20047;-81
2023/01/06 07:49:06;;;;;;;6.03;3.75;;;9.50;99.90;;;;;;5060536;28;20079;-82
2023/01/06 07:51:31;;;;;;;5.05;4.00;;;9.50;99.90;;;;;;5074356;28;20041;-80
2023/01/06 07:53:57;;;;;;;5.93;3.95;;;9.50;99.90;;;;;;5063812;28;20055;-82
2023/01/06 07:56:23;;;;;;;6.53;4.15;;;9.50;99.90;;;;;;5069186;28;20107;-75
2023/01/06 07:58:49;;;;;;;4.93;3.80;;;9.50;99.90;;;;;;5100000;28;20056;-79
2023/01/06 08:01:15;;;;;;;4.88;4.05;;;9.50;99.90;;;;;;5099195;28;20055;-80
2023/01/06 08:03:41;;;;;;;7.43;4.55;;;9.50;99.90;;;;;;5085831;28;20127;-76
2023/01/06 08:06:11;;;;;;;5.00;3.72;;;9.50;99.90;;;;;;5101375;28;20052;-75
2023/01/06 08:08:38;;;;;;;5.60;4.32;;;9.50;99.90;;;;;;5075189;28;20078;-78
2023/01/06 08:11:10;;;;;;;5.50;3.83;;;9.50;99.90;;;;;;5080161;28;20051;-78
2023/01/06 08:13:36;;;;;;;5.70;4.05;;;9.50;99.90;;;;;;5069919;28;20112;-78
2023/01/06 08:16:07;;;;;;;5.00;4.40;;;9.50;99.90;;;;;;5078951;28;20169;-84
2023/01/06 08:18:33;;;;;;;6.28;4.20;;;9.50;99.90;;;;;;5096017;27;20059;-81
2023/01/06 08:21:04;;;;;;;5.07;4.22;;;9.50;99.90;;;;;;5049672;28;20044;-78
2023/01/06 08:23:30;;;;;;;5.15;3.17;;;9.60;99.90;;;;;;5072609;28;20933;-78
2023/01/06 08:26:03;;;;;;;5.47;3.72;;;9.50;99.90;;;;;;5058975;28;20102;-82
2023/01/06 08:28:29;;;;;;;5.18;3.85;;;9.50;99.90;;;;;;5075769;28;20108;-82
2023/01/06 08:30:55;;;;;;;5.22;3.58;;;9.50;99.90;;;;;;5076118;28;20087;-80
2023/01/06 08:33:23;;;;;;;3.97;3.33;;;9.50;99.90;;;;;;5077766;28;20040;-83
2023/01/06 08:35:49;;;;;;;3.20;1.70;;;9.50;99.90;;;;;;5060532;28;20045;-86
2023/01/06 08:38:15;;;;;;;4.32;2.75;;;9.50;99.90;;;;;;5059127;28;20097;-79
2023/01/06 08:40:40;;;;;;;4.15;2.20;;;9.50;99.90;;;;;;5081201;28;20099;-83
2023/01/06 08:43:06;;;;;;;3.65;2.22;;;9.50;99.90;;;;;;5032497;28;20087;-78
2023/01/06 08:45:32;;;;;;;7.65;2.08;;;9.50;99.90;;;;;;5049976;28;20067;-82
2023/01/06 08:47:57;;;;;;;2.60;1.40;;;9.40;99.90;;;;;;5060444;28;20476;-85
2023/01/06 08:50:23;;;;;;;1.85;1.05;;;9.30;99.90;;;;;;5067732;28;20045;-81
2023/01/06 08:52:49;;;;;;;2.30;1.25;;;9.20;99.90;;;;;;5064566;28;20069;-82
2023/01/06 08:55:14;;;;;;;3.00;1.00;;;9.10;99.90;;;;;;5067383;28;20106;-81
2023/01/06 08:57:40;;;;;;;1.80;1.10;;;9.10;99.90;;;;;;5045205;28;20055;-83
2023/01/06 09:00:07;;;;;;;2.65;0.88;;;9.00;99.90;;;;;;5060268;28;20060;-82
2023/01/06 09:02:32;;;;;;;1.73;0.98;;;9.00;99.90;;;;;;5102363;28;20044;-82
2023/01/06 09:04:58;;;;;;;1.88;0.60;;;9.00;99.90;;;;;;5067877;28;20048;-85
2023/01/06 09:07:24;;;;;;;2.97;0.90;;;9.00;99.90;;;;;;5072394;28;20049;-83
2023/01/06 09:09:49;;;;;;;3.13;0.90;;;9.00;99.90;;;;;;5066860;28;20043;-81
2023/01/06 09:12:15;;;;;;;1.63;0.70;;;9.00;99.90;;;;;;5043612;28;20037;-82
2023/01/06 09:14:41;;;;;;;2.40;0.80;;;9.10;99.90;;;;;;5075049;28;20079;-79
2023/01/06 09:17:06;;;;;;;1.77;0.70;;;9.10;99.90;;;;;;5061092;28;20049;-85
2023/01/06 09:19:32;;;;;;;1.23;0.70;;;9.10;99.90;;;;;;5080210;28;20049;-85
2023/01/06 09:21:58;;;;;;;2.95;0.73;;;9.10;99.90;;;;;;5057513;28;20694;-86
2023/01/06 09:24:23;;;;;;;3.88;0.90;;;9.10;99.90;;;;;;5061486;28;20098;-85
2023/01/06 09:26:49;;;;;;;2.13;0.70;;;9.20;99.90;;;;;;5048556;28;20145;-84
2023/01/06 09:29:15;;;;;;;3.88;0.90;;;9.20;99.90;;;;;;5069105;28;20052;-81
2023/01/06 09:31:41;;;;;;;2.35;0.85;;;9.20;99.90;;;;;;5066551;28;20044;-81
2023/01/06 09:34:06;;;;;;;2.92;0.77;;;9.20;99.90;;;;;;5076510;28;20127;-86
2023/01/06 09:36:33;;;;;;;2.63;0.70;;;9.20;99.90;;;;;;5048072;28;20041;-82
2023/01/06 09:39:00;;;;;;;2.33;0.65;;;9.20;99.90;;;;;;5051264;28;20112;-88
2023/01/06 09:41:34;;;;;;;2.03;0.80;;;9.20;99.90;;;;;;5057246;28;20070;-86
2023/01/06 09:44:19;;;;;;;1.75;0.70;;;9.30;99.90;;;;;;5074592;28;20063;-83
2023/01/06 09:46:48;;;;;;;3.10;0.75;;;9.30;99.90;;;;;;5077015;28;20056;-84
2023/01/06 09:49:39;;;;;;;1.73;0.88;;;9.30;99.90;;;;;;5074248;28;20048;-84
2023/01/06 09:52:26;;;;;;;2.65;0.93;;;9.30;99.90;;;;;;5056825;28;20060;-83
2023/01/06 09:54:55;;;;;;;3.33;0.82;;;9.30;99.90;;;;;;5068506;28;20511;-86
2023/01/06 09:57:33;;;;;;;3.58;0.80;;;9.30;99.90;;;;;;5092584;28;20087;-81
2023/01/06 10:00:18;;;;;;;1.70;0.80;;;9.40;99.90;;;;;;5089341;28;20045;-82
2023/01/06 10:02:44;;;;;;;4.70;1.35;;;9.40;99.90;;;;;;5060961;28;20049;-87
2023/01/06 10:05:31;;;;;;;2.90;0.80;;;9.50;99.90;;;;;;5043550;28;20120;-83
2023/01/06 10:08:20;;;;;;;;;;;9.50;99.90;;;;;;5078734;28;20084;-81
2023/01/06 10:11:14;;;;;;;2.25;0.68;;;9.60;99.90;;;;;;5065484;28;20458;-83
2023/01/06 10:13:45;;;;;;;3.65;0.80;;;9.70;99.90;;;;;;5068784;28;20041;-84
2023/01/06 10:16:14;;;;;;;2.00;0.82;;;9.80;99.90;;;;;;5068503;28;20072;-84
2023/01/06 10:18:43;;;;;;;2.45;0.60;;;9.90;99.90;;;;;;5078077;28;20044;-82
2023/01/06 10:21:31;;;;;;;3.92;0.90;;;10.10;99.90;;;;;;5055434;28;20083;-88
2023/01/06 10:24:15;;;;;;;2.42;0.85;;;10.30;99.90;;;;;;5075215;28;20045;-83
2023/01/06 10:26:53;;;;;;;3.83;1.08;;;10.60;99.90;;;;;;5068148;28;20060;-84
2023/01/06 10:29:20;;;;;;;4.22;0.90;;;10.90;99.90;;;;;;5054987;28;20123;-86
2023/01/06 10:31:50;;;;;;;2.65;0.80;;;11.10;99.90;;;;;;5079012;28;20053;-84
2023/01/06 10:34:22;;;;;;;4.05;0.80;;;11.30;99.90;;;;;;5071226;28;20053;-86
2023/01/06 10:36:55;;;;;;;3.03;0.73;;;11.40;99.90;;;;;;5070608;28;20068;-87
2023/01/06 10:39:26;;;;;;;4.10;0.80;;;11.50;99.90;;;;;;5065909;28;20045;-86
2023/01/06 10:41:52;;;;;;;3.10;1.02;;;11.70;99.90;;;;;;5050886;28;20510;-81
2023/01/06 10:44:18;;;;;;;4.85;1.35;;;11.80;99.90;;;;;;5077925;28;20055;-82
2023/01/06 10:46:46;;;;;;;3.63;1.00;;;11.70;99.90;;;;;;5046123;28;20041;-85
2023/01/06 10:49:16;;;;;;;3.88;0.90;;;11.80;99.90;;;;;;5069339;28;20040;-86
2023/01/06 10:51:47;;;;;;;2.60;1.00;;;11.80;99.90;;;;;;5065203;28;20053;-83
2023/01/06 10:54:27;;;;;;;4.95;1.02;;;11.50;99.90;;;;;;5090739;28;20059;-87
2023/01/06 10:56:59;;;;;;;3.88;1.00;;;11.50;99.90;;;;;;5074005;28;20233;-83
2023/01/06 10:59:25;;;;;;;1.90;0.47;;;11.50;99.90;;;;;;5071068;28;20059;-85
2023/01/06 11:01:54;;;;;;;3.95;1.15;;;11.30;99.90;;;;;;5040536;28;20075;-83
2023/01/06 11:04:20;;;;;;;3.58;0.90;;;11.10;99.90;;;;;;5088582;28;20049;-83
2023/01/06 11:06:50;;;;;;;2.58;0.85;;;11.00;99.90;;;;;;5074712;28;20551;-87
2023/01/06 11:09:37;;;;;;;3.47;0.90;;;10.80;99.90;;;;;;5065452;28;20071;-83
2023/01/06 11:12:19;;;;;;;3.95;0.88;;;10.90;99.90;;;;;;5060028;28;20112;-85
2023/01/06 11:14:58;;;;;;;3.20;1.20;;;10.70;99.90;;;;;;5076347;28;20037;-87
2023/01/06 11:17:25;;;;;;;5.22;0.93;;;10.70;99.90;;;;;;5058617;28;20086;-82
2023/01/06 11:20:31;;;;;;;5.18;1.20;;;10.50;99.90;;;;;;5076975;28;20049;-84
2023/01/06 11:23:12;;;;;;;2.92;0.93;;;10.20;99.90;;;;;;5018799;28;20050;-80
2023/01/06 11:25:38;;;;;;;3.90;0.98;;;10.10;99.90;;;;;;5000736;28;20053;-87
2023/01/06 11:28:20;;;;;;;4.88;1.38;;;10.10;99.90;;;;;;5026011;28;20081;-80
2023/01/06 11:30:57;;;;;;;2.55;0.77;;;10.10;99.90;;;;;;5060652;28;20055;-82
2023/01/06 11:33:25;;;;;;;5.15;1.00;;;10.10;99.90;;;;;;5059618;28;20072;-84
2023/01/06 11:35:52;;;;;;;3.67;1.15;;;10.10;99.90;;;;;;5062934;28;20040;-86
2023/01/06 11:38:19;;;;;;;3.00;0.80;;;10.10;99.90;;;;;;5081118;28;20039;-80
2023/01/06 11:40:52;;;;;;;4.22;0.98;;;10.20;99.90;;;;;;5082998;28;20040;-87
2023/01/06 11:43:28;;;;;;;4.88;1.02;;;10.20;99.90;;;;;;5083375;28;20037;-88
2023/01/06 11:45:59;;;;;;;3.17;0.80;;;10.20;99.90;;;;;;5088070;28;20048;-80
2023/01/06 11:48:42;;;;;;;3.95;0.80;;;10.20;99.90;;;;;;5089078;28;20059;-80
2023/01/06 11:51:09;;;;;;;7.03;2.00;;;10.10;99.90;;;;;;5070373;28;20048;-84
2023/01/06 11:53:37;;;;;;;3.45;0.80;;;10.10;99.90;;;;;;5086994;28;20061;-82
2023/01/06 11:56:19;;;;;;;2.97;0.80;;;10.10;99.90;;;;;;5078996;28;20090;-83
2023/01/06 11:58:50;;;;;;;3.08;1.45;;;10.10;99.90;;;;;;5079895;28;20053;-79
2023/01/06 12:01:32;;;;;;;3.75;1.02;;;10.00;99.90;;;;;;5081005;28;20048;-82
2023/01/06 12:04:25;;;;;;;3.33;0.95;;;10.00;99.90;;;;;;5078852;28;20106;-84
2023/01/06 12:06:57;;;;;;;3.15;0.85;;;9.90;99.90;;;;;;5080914;28;20060;-84
2023/01/06 12:09:35;;;;;;;5.47;2.35;;;9.90;99.90;;;;;;5079888;28;20052;-86
2023/01/06 12:12:08;;;;;;;2.03;0.73;;;9.90;99.90;;;;;;5061977;28;20060;-81
2023/01/06 12:14:37;;;;;;;4.88;1.20;;;9.90;99.90;;;;;;5062546;28;20432;-80
2023/01/06 12:17:27;;;;;;;4.28;1.00;;;9.90;99.90;;;;;;5078303;28;20552;-85
2023/01/06 12:20:06;;;;;;;2.35;1.00;;;10.00;99.90;;;;;;5079641;28;20601;-79
2023/01/06 12:22:37;;;;;;;2.88;0.85;;;10.00;99.90;;;;;;5079974;28;20052;-85
2023/01/06 12:25:08;;;;;;;3.75;1.10;;;10.00;99.90;;;;;;5061456;28;20061;-79
2023/01/06 12:28:00;;;;;;;2.28;0.85;;;10.00;99.90;;;;;;5064392;28;20075;-82
2023/01/06 12:30:41;;;;;;;4.03;1.00;;;9.90;99.90;;;;;;5071304;28;20056;-83
2023/01/06 12:33:15;;;;;;;6.28;1.30;;;9.90;99.90;;;;;;5079172;28;20059;-81
2023/01/06 12:35:42;;;;;;;7.35;1.00;;;9.60;99.90;;;;;;5063996;28;20044;-82
2023/01/06 12:38:31;;;;;;;2.25;0.82;;;9.80;99.90;;;;;;5077631;28;20044;-81
2023/01/06 12:41:06;;;;;;;2.97;1.23;;;9.80;99.90;;;;;;5063309;28;20048;-87
2023/01/06 12:43:36;;;;;;;3.40;0.90;;;9.70;99.90;;;;;;5079203;28;20218;-80
2023/01/06 12:46:09;;;;;;;5.18;1.02;;;9.70;99.90;;;;;;5078627;28;20054;-80
2023/01/06 12:48:53;;;;;;;2.83;0.80;;;9.70;99.90;;;;;;5063606;28;20044;-87
2023/01/06 12:51:36;;;;;;;2.35;0.85;;;9.70;99.90;;;;;;5061011;28;20059;-88
2023/01/06 12:54:11;;;;;;;3.78;0.85;;;9.80;99.90;;;;;;5063128;28;20041;-84
2023/01/06 12:56:55;;;;;;;3.28;1.20;;;9.80;99.90;;;;;;5079340;28;20051;-81
2023/01/06 12:59:32;;;;;;;4.20;0.85;;;9.90;99.90;;;;;;5077413;28;20052;-89
2023/01/06 13:02:26;;;;;;;2.95;0.90;;;10.00;99.90;;;;;;5080106;28;20440;-81
2023/01/06 13:04:59;;;;;;;2.50;0.70;;;10.20;99.90;;;;;;5078828;28;20040;-80
2023/01/06 13:07:40;;;;;;;3.28;0.80;;;10.20;99.90;;;;;;5078342;28;20124;-86
2023/01/06 13:10:40;;;;;;;6.13;1.00;;;10.10;99.90;;;;;;5079472;28;20048;-81